sensor_id;sensor_type;location;lat;lon;timestamp;P1;durP1;ratioP1;P2;durP2;ratioP2
9392;SDS011;4736;52.508;13.422;2023-08-20T00:01:12;20.13;;;18.63;;
9392;SDS011;4736;52.508;13.422;2023-08-20T00:04:17;20.23;;;18.77;;
9392;SDS011;4736;52.508;13.422;2023-08-20T00:07:21;21.37;;;19.57;;
9392;SDS011;4736;52.508;13.422;2023-08-20T00:10:24;20.47;;;18.87;;
9392;SDS011;4736;52.508;13.422;2023-08-20T00:13:28;20.13;;;18.63;;
9392;SDS011;4736;52.508;13.422;2023-08-20T00:16:32;21.77;;;19.93;;
9392;SDS011;4736;52.508;13.422;2023-08-20T00:19:36;19.87;;;18.37;;
9392;SDS011;4736;52.508;13.422;2023-08-20T00:22:40;21.93;;;20.03;;
9392;SDS011;4736;52.508;13.422;2023-08-20T00:25:46;19.13;;;17.67;;
9392;SDS011;4736;52.508;13.422;2023-08-20T00:28:51;20.57;;;18.87;;
9392;SDS011;4736;52.508;13.422;2023-08-20T00:31:54;19.83;;;18.33;;
9392;SDS011;4736;52.508;13.422;2023-08-20T00:34:57;19.37;;;17.90;;
9392;SDS011;4736;52.508;13.422;2023-08-20T00:38:00;19.40;;;18.10;;
9392;SDS011;4736;52.508;13.422;2023-08-20T00:41:03;18.33;;;16.83;;
9392;SDS011;4736;52.508;13.422;2023-08-20T00:44:08;17.73;;;16.43;;
9392;SDS011;4736;52.508;13.422;2023-08-20T00:47:11;17.37;;;16.23;;
9392;SDS011;4736;52.508;13.422;2023-08-20T00:50:15;16.20;;;15.20;;
9392;SDS011;4736;52.508;13.422;2023-08-20T00:53:19;16.30;;;15.20;;
9392;SDS011;4736;52.508;13.422;2023-08-20T00:56:22;17.57;;;16.40;;
9392;SDS011;4736;52.508;13.422;2023-08-20T00:59:27;17.30;;;16.00;;
9392;SDS011;4736;52.508;13.422;2023-08-20T01:02:32;15.13;;;14.20;;
9392;SDS011;4736;52.508;13.422;2023-08-20T01:05:39;19.00;;;17.50;;
9392;SDS011;4736;52.508;13.422;2023-08-20T01:08:53;18.23;;;16.93;;
9392;SDS011;4736;52.508;13.422;2023-08-20T01:12:02;17.00;;;15.63;;
9392;SDS011;4736;52.508;13.422;2023-08-20T01:15:07;17.70;;;16.30;;
9392;SDS011;4736;52.508;13.422;2023-08-20T01:18:16;17.87;;;16.67;;
9392;SDS011;4736;52.508;13.422;2023-08-20T01:21:20;17.87;;;16.67;;
9392;SDS011;4736;52.508;13.422;2023-08-20T01:24:39;16.93;;;15.63;;
9392;SDS011;4736;52.508;13.422;2023-08-20T01:27:51;19.33;;;17.67;;
9392;SDS011;4736;52.508;13.422;2023-08-20T01:31:02;17.13;;;15.70;;
9392;SDS011;4736;52.508;13.422;2023-08-20T01:34:06;16.90;;;15.70;;
9392;SDS011;4736;52.508;13.422;2023-08-20T01:37:09;17.03;;;15.63;;
9392;SDS011;4736;52.508;13.422;2023-08-20T01:40:12;17.73;;;15.67;;
9392;SDS011;4736;52.508;13.422;2023-08-20T01:43:15;17.83;;;16.40;;
9392;SDS011;4736;52.508;13.422;2023-08-20T01:46:20;17.33;;;15.70;;
9392;SDS011;4736;52.508;13.422;2023-08-20T01:49:23;17.13;;;15.67;;
9392;SDS011;4736;52.508;13.422;2023-08-20T01:52:26;17.50;;;16.10;;
9392;SDS011;4736;52.508;13.422;2023-08-20T01:55:30;16.90;;;15.33;;
9392;SDS011;4736;52.508;13.422;2023-08-20T01:58:33;17.50;;;15.90;;
9392;SDS011;4736;52.508;13.422;2023-08-20T02:01:38;18.20;;;16.47;;
9392;SDS011;4736;52.508;13.422;2023-08-20T02:04:41;17.20;;;15.80;;
9392;SDS011;4736;52.508;13.422;2023-08-20T02:07:44;17.50;;;16.20;;
9392;SDS011;4736;52.508;13.422;2023-08-20T02:10:48;16.87;;;15.20;;
9392;SDS011;4736;52.508;13.422;2023-08-20T02:13:51;15.27;;;14.00;;
9392;SDS011;4736;52.508;13.422;2023-08-20T02:16:55;17.17;;;15.57;;
9392;SDS011;4736;52.508;13.422;2023-08-20T02:19:58;17.00;;;15.40;;
9392;SDS011;4736;52.508;13.422;2023-08-20T02:23:01;17.90;;;16.07;;
9392;SDS011;4736;52.508;13.422;2023-08-20T02:26:04;18.17;;;16.57;;
9392;SDS011;4736;52.508;13.422;2023-08-20T02:29:07;17.63;;;15.90;;
9392;SDS011;4736;52.508;13.422;2023-08-20T02:32:12;18.57;;;16.73;;
9392;SDS011;4736;52.508;13.422;2023-08-20T02:35:15;17.77;;;16.10;;
9392;SDS011;4736;52.508;13.422;2023-08-20T02:38:18;15.47;;;14.20;;
9392;SDS011;4736;52.508;13.422;2023-08-20T02:41:22;16.87;;;15.50;;
9392;SDS011;4736;52.508;13.422;2023-08-20T02:44:25;16.73;;;15.33;;
9392;SDS011;4736;52.508;13.422;2023-08-20T02:47:29;18.20;;;16.70;;
9392;SDS011;4736;52.508;13.422;2023-08-20T02:50:34;16.97;;;15.33;;
9392;SDS011;4736;52.508;13.422;2023-08-20T02:53:38;16.87;;;15.23;;
9392;SDS011;4736;52.508;13.422;2023-08-20T02:56:41;17.63;;;16.13;;
9392;SDS011;4736;52.508;13.422;2023-08-20T02:59:44;17.07;;;15.67;;
9392;SDS011;4736;52.508;13.422;2023-08-20T03:02:49;16.73;;;15.40;;
9392;SDS011;4736;52.508;13.422;2023-08-20T03:05:52;16.00;;;14.40;;
9392;SDS011;4736;52.508;13.422;2023-08-20T03:08:55;16.77;;;15.17;;
9392;SDS011;4736;52.508;13.422;2023-08-20T03:12:00;17.03;;;15.40;;
9392;SDS011;4736;52.508;13.422;2023-08-20T03:15:04;17.57;;;15.73;;
9392;SDS011;4736;52.508;13.422;2023-08-20T03:18:10;16.30;;;14.93;;
9392;SDS011;4736;52.508;13.422;2023-08-20T03:21:13;16.73;;;15.33;;
9392;SDS011;4736;52.508;13.422;2023-08-20T03:24:16;16.77;;;15.27;;
9392;SDS011;4736;52.508;13.422;2023-08-20T03:27:19;16.70;;;15.30;;
9392;SDS011;4736;52.508;13.422;2023-08-20T03:30:22;16.67;;;15.20;;
9392;SDS011;4736;52.508;13.422;2023-08-20T03:33:26;16.13;;;14.63;;
9392;SDS011;4736;52.508;13.422;2023-08-20T03:36:29;15.67;;;14.30;;
9392;SDS011;4736;52.508;13.422;2023-08-20T03:39:33;16.67;;;15.17;;
9392;SDS011;4736;52.508;13.422;2023-08-20T03:42:36;16.63;;;15.07;;
9392;SDS011;4736;52.508;13.422;2023-08-20T03:45:39;16.67;;;15.10;;
9392;SDS011;4736;52.508;13.422;2023-08-20T03:48:44;16.93;;;15.47;;
9392;SDS011;4736;52.508;13.422;2023-08-20T03:51:47;16.57;;;15.17;;
9392;SDS011;4736;52.508;13.422;2023-08-20T03:54:50;16.77;;;15.50;;
9392;SDS011;4736;52.508;13.422;2023-08-20T03:57:53;15.63;;;14.43;;
9392;SDS011;4736;52.508;13.422;2023-08-20T04:00:56;16.83;;;15.23;;
9392;SDS011;4736;52.508;13.422;2023-08-20T04:04:01;16.10;;;14.80;;
9392;SDS011;4736;52.508;13.422;2023-08-20T04:07:04;17.40;;;15.77;;
9392;SDS011;4736;52.508;13.422;2023-08-20T04:10:08;15.57;;;14.23;;
9392;SDS011;4736;52.508;13.422;2023-08-20T04:13:11;16.87;;;15.10;;
9392;SDS011;4736;52.508;13.422;2023-08-20T04:16:15;15.47;;;14.10;;
9392;SDS011;4736;52.508;13.422;2023-08-20T04:19:19;16.97;;;15.33;;
9392;SDS011;4736;52.508;13.422;2023-08-20T04:22:23;16.90;;;15.53;;
9392;SDS011;4736;52.508;13.422;2023-08-20T04:25:26;16.80;;;15.00;;
9392;SDS011;4736;52.508;13.422;2023-08-20T04:28:29;16.90;;;15.27;;
9392;SDS011;4736;52.508;13.422;2023-08-20T04:31:32;18.13;;;16.47;;
9392;SDS011;4736;52.508;13.422;2023-08-20T04:34:37;18.03;;;16.63;;
9392;SDS011;4736;52.508;13.422;2023-08-20T04:37:40;19.50;;;16.87;;
9392;SDS011;4736;52.508;13.422;2023-08-20T04:40:45;17.30;;;15.77;;
9392;SDS011;4736;52.508;13.422;2023-08-20T04:43:48;17.33;;;15.63;;
9392;SDS011;4736;52.508;13.422;2023-08-20T04:46:51;17.13;;;15.63;;
9392;SDS011;4736;52.508;13.422;2023-08-20T04:49:56;17.60;;;16.00;;
9392;SDS011;4736;52.508;13.422;2023-08-20T04:52:59;17.33;;;15.93;;
9392;SDS011;4736;52.508;13.422;2023-08-20T04:56:03;17.30;;;15.90;;
9392;SDS011;4736;52.508;13.422;2023-08-20T04:59:06;17.93;;;16.23;;
9392;SDS011;4736;52.508;13.422;2023-08-20T05:02:09;17.13;;;15.63;;
9392;SDS011;4736;52.508;13.422;2023-08-20T05:05:13;19.23;;;17.20;;
9392;SDS011;4736;52.508;13.422;2023-08-20T05:08:16;18.70;;;16.97;;
9392;SDS011;4736;52.508;13.422;2023-08-20T05:11:19;18.03;;;16.40;;
9392;SDS011;4736;52.508;13.422;2023-08-20T05:14:22;16.90;;;15.30;;
9392;SDS011;4736;52.508;13.422;2023-08-20T05:17:26;17.67;;;16.27;;
9392;SDS011;4736;52.508;13.422;2023-08-20T05:20:30;16.30;;;14.83;;
9392;SDS011;4736;52.508;13.422;2023-08-20T05:23:33;18.57;;;17.03;;
9392;SDS011;4736;52.508;13.422;2023-08-20T05:26:36;21.30;;;19.10;;
9392;SDS011;4736;52.508;13.422;2023-08-20T05:29:40;19.07;;;17.17;;
9392;SDS011;4736;52.508;13.422;2023-08-20T05:32:43;19.20;;;17.57;;
9392;SDS011;4736;52.508;13.422;2023-08-20T05:35:48;19.17;;;17.27;;
9392;SDS011;4736;52.508;13.422;2023-08-20T05:38:51;18.33;;;16.60;;
9392;SDS011;4736;52.508;13.422;2023-08-20T05:41:54;19.23;;;17.33;;
9392;SDS011;4736;52.508;13.422;2023-08-20T05:44:57;18.77;;;16.87;;
9392;SDS011;4736;52.508;13.422;2023-08-20T05:48:03;17.70;;;16.23;;
9392;SDS011;4736;52.508;13.422;2023-08-20T05:51:07;19.03;;;17.33;;
9392;SDS011;4736;52.508;13.422;2023-08-20T05:54:11;18.70;;;17.00;;
9392;SDS011;4736;52.508;13.422;2023-08-20T05:57:14;18.47;;;16.73;;
9392;SDS011;4736;52.508;13.422;2023-08-20T06:00:17;17.90;;;16.23;;
9392;SDS011;4736;52.508;13.422;2023-08-20T06:03:20;19.90;;;18.13;;
9392;SDS011;4736;52.508;13.422;2023-08-20T06:06:25;19.60;;;17.90;;
9392;SDS011;4736;52.508;13.422;2023-08-20T06:09:28;17.33;;;15.83;;
9392;SDS011;4736;52.508;13.422;2023-08-20T06:12:31;17.60;;;16.20;;
9392;SDS011;4736;52.508;13.422;2023-08-20T06:15:35;19.67;;;18.07;;
9392;SDS011;4736;52.508;13.422;2023-08-20T06:18:39;19.80;;;17.70;;
9392;SDS011;4736;52.508;13.422;2023-08-20T06:21:43;18.17;;;16.20;;
9392;SDS011;4736;52.508;13.422;2023-08-20T06:24:48;17.97;;;16.43;;
9392;SDS011;4736;52.508;13.422;2023-08-20T06:27:51;18.77;;;17.20;;
9392;SDS011;4736;52.508;13.422;2023-08-20T06:30:54;19.07;;;17.57;;
9392;SDS011;4736;52.508;13.422;2023-08-20T06:33:57;18.00;;;16.50;;
9392;SDS011;4736;52.508;13.422;2023-08-20T06:37:02;19.03;;;17.33;;
9392;SDS011;4736;52.508;13.422;2023-08-20T06:40:05;20.70;;;18.90;;
9392;SDS011;4736;52.508;13.422;2023-08-20T06:43:09;19.13;;;17.57;;
9392;SDS011;4736;52.508;13.422;2023-08-20T06:46:13;19.10;;;17.57;;
9392;SDS011;4736;52.508;13.422;2023-08-20T06:49:18;18.70;;;16.90;;
9392;SDS011;4736;52.508;13.422;2023-08-20T06:52:23;18.57;;;17.03;;
9392;SDS011;4736;52.508;13.422;2023-08-20T06:55:26;20.03;;;18.20;;
9392;SDS011;4736;52.508;13.422;2023-08-20T06:58:29;17.90;;;16.27;;
9392;SDS011;4736;52.508;13.422;2023-08-20T07:01:32;18.70;;;16.93;;
9392;SDS011;4736;52.508;13.422;2023-08-20T07:04:35;19.17;;;17.47;;
9392;SDS011;4736;52.508;13.422;2023-08-20T07:07:40;18.80;;;17.23;;
9392;SDS011;4736;52.508;13.422;2023-08-20T07:10:43;19.70;;;17.97;;
9392;SDS011;4736;52.508;13.422;2023-08-20T07:13:46;19.50;;;17.67;;
9392;SDS011;4736;52.508;13.422;2023-08-20T07:16:49;19.90;;;18.10;;
9392;SDS011;4736;52.508;13.422;2023-08-20T07:19:52;18.87;;;17.13;;
9392;SDS011;4736;52.508;13.422;2023-08-20T07:22:56;19.70;;;18.00;;
9392;SDS011;4736;52.508;13.422;2023-08-20T07:26:06;19.50;;;17.70;;
9392;SDS011;4736;52.508;13.422;2023-08-20T07:29:10;18.57;;;16.77;;
9392;SDS011;4736;52.508;13.422;2023-08-20T07:32:13;17.83;;;16.20;;
9392;SDS011;4736;52.508;13.422;2023-08-20T07:35:16;17.47;;;16.00;;
9392;SDS011;4736;52.508;13.422;2023-08-20T07:38:21;16.43;;;14.87;;
9392;SDS011;4736;52.508;13.422;2023-08-20T07:41:24;14.77;;;13.50;;
9392;SDS011;4736;52.508;13.422;2023-08-20T07:44:27;16.17;;;14.63;;
9392;SDS011;4736;52.508;13.422;2023-08-20T07:47:30;20.20;;;15.97;;
9392;SDS011;4736;52.508;13.422;2023-08-20T07:50:34;16.77;;;15.40;;
9392;SDS011;4736;52.508;13.422;2023-08-20T07:53:38;16.10;;;14.90;;
9392;SDS011;4736;52.508;13.422;2023-08-20T07:56:42;16.77;;;15.30;;
9392;SDS011;4736;52.508;13.422;2023-08-20T07:59:45;17.47;;;15.93;;
9392;SDS011;4736;52.508;13.422;2023-08-20T08:02:48;17.77;;;16.30;;
9392;SDS011;4736;52.508;13.422;2023-08-20T08:05:51;17.83;;;16.17;;
9392;SDS011;4736;52.508;13.422;2023-08-20T08:08:56;18.07;;;16.57;;
9392;SDS011;4736;52.508;13.422;2023-08-20T08:12:16;16.47;;;15.17;;
9392;SDS011;4736;52.508;13.422;2023-08-20T08:15:19;16.83;;;15.60;;
9392;SDS011;4736;52.508;13.422;2023-08-20T08:18:22;17.60;;;16.13;;
9392;SDS011;4736;52.508;13.422;2023-08-20T08:21:25;15.70;;;14.30;;
9392;SDS011;4736;52.508;13.422;2023-08-20T08:24:30;15.77;;;14.67;;
9392;SDS011;4736;52.508;13.422;2023-08-20T08:27:33;14.47;;;13.40;;
9392;SDS011;4736;52.508;13.422;2023-08-20T08:30:54;14.20;;;13.20;;
9392;SDS011;4736;52.508;13.422;2023-08-20T08:33:58;14.30;;;13.00;;
9392;SDS011;4736;52.508;13.422;2023-08-20T08:37:01;15.80;;;14.57;;
9392;SDS011;4736;52.508;13.422;2023-08-20T08:40:06;14.37;;;13.10;;
9392;SDS011;4736;52.508;13.422;2023-08-20T08:43:10;15.23;;;13.57;;
9392;SDS011;4736;52.508;13.422;2023-08-20T08:46:18;13.70;;;12.70;;
9392;SDS011;4736;52.508;13.422;2023-08-20T08:49:21;12.97;;;11.93;;
9392;SDS011;4736;52.508;13.422;2023-08-20T08:52:25;11.93;;;10.87;;
9392;SDS011;4736;52.508;13.422;2023-08-20T08:55:30;13.03;;;11.93;;
9392;SDS011;4736;52.508;13.422;2023-08-20T08:58:33;11.37;;;10.43;;
9392;SDS011;4736;52.508;13.422;2023-08-20T09:01:38;11.80;;;10.80;;
9392;SDS011;4736;52.508;13.422;2023-08-20T09:04:41;10.93;;;10.10;;
9392;SDS011;4736;52.508;13.422;2023-08-20T09:07:45;11.43;;;10.40;;
9392;SDS011;4736;52.508;13.422;2023-08-20T09:10:51;11.80;;;10.80;;
9392;SDS011;4736;52.508;13.422;2023-08-20T09:13:55;11.33;;;10.67;;
9392;SDS011;4736;52.508;13.422;2023-08-20T09:16:59;10.67;;;9.77;;
9392;SDS011;4736;52.508;13.422;2023-08-20T09:20:02;11.37;;;10.63;;
9392;SDS011;4736;52.508;13.422;2023-08-20T09:23:10;11.17;;;10.30;;
9392;SDS011;4736;52.508;13.422;2023-08-20T09:26:15;11.07;;;10.27;;
9392;SDS011;4736;52.508;13.422;2023-08-20T09:29:18;9.90;;;9.20;;
9392;SDS011;4736;52.508;13.422;2023-08-20T09:32:22;9.77;;;9.07;;
9392;SDS011;4736;52.508;13.422;2023-08-20T09:35:26;10.00;;;9.30;;
9392;SDS011;4736;52.508;13.422;2023-08-20T09:38:29;10.00;;;9.20;;
9392;SDS011;4736;52.508;13.422;2023-08-20T09:41:40;10.37;;;8.97;;
9392;SDS011;4736;52.508;13.422;2023-08-20T09:44:43;9.57;;;8.73;;
9392;SDS011;4736;52.508;13.422;2023-08-20T09:47:53;9.47;;;8.80;;
9392;SDS011;4736;52.508;13.422;2023-08-20T09:50:59;8.37;;;7.87;;
9392;SDS011;4736;52.508;13.422;2023-08-20T09:54:07;9.17;;;8.47;;
9392;SDS011;4736;52.508;13.422;2023-08-20T09:57:19;9.13;;;8.53;;
9392;SDS011;4736;52.508;13.422;2023-08-20T10:00:28;7.87;;;7.47;;
9392;SDS011;4736;52.508;13.422;2023-08-20T10:03:32;9.50;;;8.67;;
9392;SDS011;4736;52.508;13.422;2023-08-20T10:06:36;7.73;;;7.10;;
9392;SDS011;4736;52.508;13.422;2023-08-20T10:09:39;9.13;;;8.27;;
9392;SDS011;4736;52.508;13.422;2023-08-20T10:12:50;7.90;;;7.07;;
9392;SDS011;4736;52.508;13.422;2023-08-20T10:15:53;7.23;;;6.83;;
9392;SDS011;4736;52.508;13.422;2023-08-20T10:19:01;6.50;;;6.20;;
9392;SDS011;4736;52.508;13.422;2023-08-20T10:22:06;6.67;;;6.20;;
9392;SDS011;4736;52.508;13.422;2023-08-20T10:25:10;6.57;;;6.07;;
9392;SDS011;4736;52.508;13.422;2023-08-20T10:28:20;5.60;;;5.30;;
9392;SDS011;4736;52.508;13.422;2023-08-20T10:31:25;5.67;;;5.33;;
9392;SDS011;4736;52.508;13.422;2023-08-20T10:34:31;5.50;;;5.20;;
9392;SDS011;4736;52.508;13.422;2023-08-20T10:37:36;5.20;;;5.00;;
9392;SDS011;4736;52.508;13.422;2023-08-20T10:40:48;5.00;;;4.80;;
9392;SDS011;4736;52.508;13.422;2023-08-20T10:43:56;5.10;;;4.80;;
9392;SDS011;4736;52.508;13.422;2023-08-20T10:47:00;4.67;;;4.47;;
9392;SDS011;4736;52.508;13.422;2023-08-20T10:50:09;6.00;;;5.53;;
9392;SDS011;4736;52.508;13.422;2023-08-20T10:53:14;4.33;;;4.23;;
9392;SDS011;4736;52.508;13.422;2023-08-20T10:56:17;4.37;;;4.27;;
9392;SDS011;4736;52.508;13.422;2023-08-20T10:59:22;4.07;;;3.97;;
9392;SDS011;4736;52.508;13.422;2023-08-20T11:02:28;4.60;;;4.43;;
9392;SDS011;4736;52.508;13.422;2023-08-20T11:05:31;6.53;;;5.00;;
9392;SDS011;4736;52.508;13.422;2023-08-20T11:08:35;4.73;;;4.53;;
9392;SDS011;4736;52.508;13.422;2023-08-20T11:11:39;4.80;;;4.50;;
9392;SDS011;4736;52.508;13.422;2023-08-20T11:14:43;4.20;;;4.10;;
9392;SDS011;4736;52.508;13.422;2023-08-20T11:17:47;4.27;;;4.07;;
9392;SDS011;4736;52.508;13.422;2023-08-20T11:20:52;5.17;;;4.90;;
9392;SDS011;4736;52.508;13.422;2023-08-20T11:23:59;5.00;;;4.67;;
9392;SDS011;4736;52.508;13.422;2023-08-20T11:27:03;4.13;;;3.93;;
9392;SDS011;4736;52.508;13.422;2023-08-20T11:30:08;3.70;;;3.60;;
9392;SDS011;4736;52.508;13.422;2023-08-20T11:33:13;3.65;;;3.53;;
9392;SDS011;4736;52.508;13.422;2023-08-20T11:36:16;4.10;;;3.90;;
9392;SDS011;4736;52.508;13.422;2023-08-20T11:39:21;3.88;;;3.72;;
9392;SDS011;4736;52.508;13.422;2023-08-20T11:42:25;4.00;;;3.85;;
9392;SDS011;4736;52.508;13.422;2023-08-20T11:45:30;5.03;;;4.72;;
9392;SDS011;4736;52.508;13.422;2023-08-20T11:48:34;4.00;;;3.90;;
9392;SDS011;4736;52.508;13.422;2023-08-20T11:51:38;3.88;;;3.65;;
9392;SDS011;4736;52.508;13.422;2023-08-20T11:54:42;3.33;;;3.13;;
9392;SDS011;4736;52.508;13.422;2023-08-20T11:57:49;3.53;;;3.33;;
9392;SDS011;4736;52.508;13.422;2023-08-20T12:00:54;3.28;;;3.13;;
9392;SDS011;4736;52.508;13.422;2023-08-20T12:04:03;4.25;;;3.35;;
9392;SDS011;4736;52.508;13.422;2023-08-20T12:07:08;3.42;;;3.22;;
9392;SDS011;4736;52.508;13.422;2023-08-20T12:10:21;3.55;;;3.40;;
9392;SDS011;4736;52.508;13.422;2023-08-20T12:13:25;3.38;;;3.08;;
9392;SDS011;4736;52.508;13.422;2023-08-20T12:16:29;3.08;;;2.88;;
9392;SDS011;4736;52.508;13.422;2023-08-20T12:19:32;2.95;;;2.85;;
9392;SDS011;4736;52.508;13.422;2023-08-20T12:22:35;3.00;;;2.90;;
9392;SDS011;4736;52.508;13.422;2023-08-20T12:25:38;3.63;;;3.40;;
9392;SDS011;4736;52.508;13.422;2023-08-20T12:28:41;3.35;;;3.15;;
9392;SDS011;4736;52.508;13.422;2023-08-20T12:31:46;3.85;;;3.15;;
9392;SDS011;4736;52.508;13.422;2023-08-20T12:34:49;3.45;;;3.22;;
9392;SDS011;4736;52.508;13.422;2023-08-20T12:37:52;3.10;;;2.90;;
9392;SDS011;4736;52.508;13.422;2023-08-20T12:40:55;3.20;;;2.92;;
9392;SDS011;4736;52.508;13.422;2023-08-20T12:43:58;3.28;;;3.17;;
9392;SDS011;4736;52.508;13.422;2023-08-20T12:47:03;3.10;;;2.90;;
9392;SDS011;4736;52.508;13.422;2023-08-20T12:50:06;2.72;;;2.65;;
9392;SDS011;4736;52.508;13.422;2023-08-20T12:53:10;2.70;;;2.60;;
9392;SDS011;4736;52.508;13.422;2023-08-20T12:56:14;3.28;;;3.15;;
9392;SDS011;4736;52.508;13.422;2023-08-20T12:59:17;3.05;;;2.90;;
9392;SDS011;4736;52.508;13.422;2023-08-20T13:02:22;4.00;;;3.00;;
9392;SDS011;4736;52.508;13.422;2023-08-20T13:05:26;2.83;;;2.72;;
9392;SDS011;4736;52.508;13.422;2023-08-20T13:08:30;3.22;;;3.03;;
9392;SDS011;4736;52.508;13.422;2023-08-20T13:11:33;2.95;;;2.85;;
9392;SDS011;4736;52.508;13.422;2023-08-20T13:14:40;2.63;;;2.58;;
9392;SDS011;4736;52.508;13.422;2023-08-20T13:17:45;3.28;;;2.13;;
9392;SDS011;4736;52.508;13.422;2023-08-20T13:20:51;2.63;;;2.42;;
9392;SDS011;4736;52.508;13.422;2023-08-20T13:23:54;2.83;;;2.72;;
9392;SDS011;4736;52.508;13.422;2023-08-20T13:27:00;2.72;;;2.53;;
9392;SDS011;4736;52.508;13.422;2023-08-20T13:30:04;2.40;;;2.40;;
9392;SDS011;4736;52.508;13.422;2023-08-20T13:33:11;2.28;;;2.00;;
9392;SDS011;4736;52.508;13.422;2023-08-20T13:36:14;2.20;;;2.15;;
9392;SDS011;4736;52.508;13.422;2023-08-20T13:39:18;2.28;;;2.20;;
9392;SDS011;4736;52.508;13.422;2023-08-20T13:42:21;1.80;;;1.80;;
9392;SDS011;4736;52.508;13.422;2023-08-20T13:45:24;3.05;;;2.25;;
9392;SDS011;4736;52.508;13.422;2023-08-20T13:48:29;2.05;;;1.95;;
9392;SDS011;4736;52.508;13.422;2023-08-20T13:51:31;2.15;;;2.10;;
9392;SDS011;4736;52.508;13.422;2023-08-20T13:54:35;2.38;;;2.28;;
9392;SDS011;4736;52.508;13.422;2023-08-20T13:57:38;2.67;;;2.15;;
9392;SDS011;4736;52.508;13.422;2023-08-20T14:00:41;2.45;;;2.28;;
9392;SDS011;4736;52.508;13.422;2023-08-20T14:03:46;2.13;;;2.00;;
9392;SDS011;4736;52.508;13.422;2023-08-20T14:06:49;2.30;;;2.20;;
9392;SDS011;4736;52.508;13.422;2023-08-20T14:09:52;1.95;;;1.90;;
9392;SDS011;4736;52.508;13.422;2023-08-20T14:12:55;2.38;;;2.28;;
9392;SDS011;4736;52.508;13.422;2023-08-20T14:15:58;2.53;;;2.33;;
9392;SDS011;4736;52.508;13.422;2023-08-20T14:19:04;2.38;;;2.20;;
9392;SDS011;4736;52.508;13.422;2023-08-20T14:22:07;2.22;;;2.13;;
9392;SDS011;4736;52.508;13.422;2023-08-20T14:25:10;1.90;;;1.90;;
9392;SDS011;4736;52.508;13.422;2023-08-20T14:28:13;2.45;;;1.90;;
9392;SDS011;4736;52.508;13.422;2023-08-20T14:31:16;2.03;;;2.03;;
9392;SDS011;4736;52.508;13.422;2023-08-20T14:34:22;1.98;;;1.98;;
9392;SDS011;4736;52.508;13.422;2023-08-20T14:37:25;1.60;;;1.60;;
9392;SDS011;4736;52.508;13.422;2023-08-20T14:40:28;1.90;;;1.80;;
9392;SDS011;4736;52.508;13.422;2023-08-20T14:43:33;2.15;;;2.05;;
9392;SDS011;4736;52.508;13.422;2023-08-20T14:46:38;1.80;;;1.80;;
9392;SDS011;4736;52.508;13.422;2023-08-20T14:49:42;2.15;;;2.08;;
9392;SDS011;4736;52.508;13.422;2023-08-20T14:52:45;2.25;;;2.15;;
9392;SDS011;4736;52.508;13.422;2023-08-20T14:55:53;2.30;;;2.20;;
9392;SDS011;4736;52.508;13.422;2023-08-20T14:58:56;2.28;;;2.22;;
9392;SDS011;4736;52.508;13.422;2023-08-20T15:01:59;1.90;;;1.90;;
9392;SDS011;4736;52.508;13.422;2023-08-20T15:05:04;2.85;;;1.90;;
9392;SDS011;4736;52.508;13.422;2023-08-20T15:08:07;2.08;;;1.88;;
9392;SDS011;4736;52.508;13.422;2023-08-20T15:11:11;2.13;;;1.92;;
9392;SDS011;4736;52.508;13.422;2023-08-20T15:14:14;1.60;;;1.60;;
9392;SDS011;4736;52.508;13.422;2023-08-20T15:17:17;2.08;;;1.83;;
9392;SDS011;4736;52.508;13.422;2023-08-20T15:20:21;2.05;;;1.85;;
9392;SDS011;4736;52.508;13.422;2023-08-20T15:23:25;2.28;;;2.13;;
9392;SDS011;4736;52.508;13.422;2023-08-20T15:26:29;2.55;;;2.35;;
9392;SDS011;4736;52.508;13.422;2023-08-20T15:29:35;3.72;;;2.42;;
9392;SDS011;4736;52.508;13.422;2023-08-20T15:32:38;2.58;;;2.38;;
9392;SDS011;4736;52.508;13.422;2023-08-20T15:35:42;2.13;;;2.03;;
9392;SDS011;4736;52.508;13.422;2023-08-20T15:38:46;4.97;;;2.28;;
9392;SDS011;4736;52.508;13.422;2023-08-20T15:41:49;2.17;;;2.08;;
9392;SDS011;4736;52.508;13.422;2023-08-20T15:44:52;1.60;;;1.50;;
9392;SDS011;4736;52.508;13.422;2023-08-20T15:47:56;1.95;;;1.85;;
9392;SDS011;4736;52.508;13.422;2023-08-20T15:51:01;1.75;;;1.70;;
9392;SDS011;4736;52.508;13.422;2023-08-20T15:54:04;2.00;;;1.90;;
9392;SDS011;4736;52.508;13.422;2023-08-20T15:57:07;2.25;;;2.05;;
9392;SDS011;4736;52.508;13.422;2023-08-20T16:00:11;2.30;;;2.10;;
9392;SDS011;4736;52.508;13.422;2023-08-20T16:03:16;2.10;;;2.05;;
9392;SDS011;4736;52.508;13.422;2023-08-20T16:06:20;2.50;;;2.30;;
9392;SDS011;4736;52.508;13.422;2023-08-20T16:09:24;2.10;;;2.00;;
9392;SDS011;4736;52.508;13.422;2023-08-20T16:12:43;2.17;;;2.15;;
9392;SDS011;4736;52.508;13.422;2023-08-20T16:15:47;1.83;;;1.83;;
9392;SDS011;4736;52.508;13.422;2023-08-20T16:18:54;2.20;;;2.10;;
9392;SDS011;4736;52.508;13.422;2023-08-20T16:21:58;2.03;;;2.03;;
9392;SDS011;4736;52.508;13.422;2023-08-20T16:25:01;2.20;;;2.10;;
9392;SDS011;4736;52.508;13.422;2023-08-20T16:28:06;2.00;;;2.00;;
9392;SDS011;4736;52.508;13.422;2023-08-20T16:31:12;2.08;;;2.00;;
9392;SDS011;4736;52.508;13.422;2023-08-20T16:34:16;2.40;;;2.22;;
9392;SDS011;4736;52.508;13.422;2023-08-20T16:37:21;2.05;;;2.00;;
9392;SDS011;4736;52.508;13.422;2023-08-20T16:40:24;2.47;;;2.20;;
9392;SDS011;4736;52.508;13.422;2023-08-20T16:43:27;2.30;;;2.20;;
9392;SDS011;4736;52.508;13.422;2023-08-20T16:46:33;2.40;;;2.30;;
9392;SDS011;4736;52.508;13.422;2023-08-20T16:49:36;2.50;;;2.30;;
9392;SDS011;4736;52.508;13.422;2023-08-20T16:52:42;2.38;;;2.28;;
9392;SDS011;4736;52.508;13.422;2023-08-20T16:55:49;2.73;;;2.50;;
9392;SDS011;4736;52.508;13.422;2023-08-20T16:58:53;2.87;;;2.73;;
9392;SDS011;4736;52.508;13.422;2023-08-20T17:01:56;2.90;;;2.67;;
9392;SDS011;4736;52.508;13.422;2023-08-20T17:04:59;3.43;;;2.50;;
9392;SDS011;4736;52.508;13.422;2023-08-20T17:08:05;2.70;;;2.50;;
9392;SDS011;4736;52.508;13.422;2023-08-20T17:11:09;2.97;;;2.77;;
9392;SDS011;4736;52.508;13.422;2023-08-20T17:14:14;2.50;;;2.40;;
9392;SDS011;4736;52.508;13.422;2023-08-20T17:17:18;4.50;;;2.80;;
9392;SDS011;4736;52.508;13.422;2023-08-20T17:20:21;4.13;;;3.00;;
9392;SDS011;4736;52.508;13.422;2023-08-20T17:23:26;4.20;;;2.80;;
9392;SDS011;4736;52.508;13.422;2023-08-20T17:26:29;2.53;;;2.43;;
9392;SDS011;4736;52.508;13.422;2023-08-20T17:29:32;2.90;;;2.70;;
9392;SDS011;4736;52.508;13.422;2023-08-20T17:32:35;6.10;;;2.70;;
9392;SDS011;4736;52.508;13.422;2023-08-20T17:35:39;3.63;;;2.53;;
9392;SDS011;4736;52.508;13.422;2023-08-20T17:38:43;2.77;;;2.57;;
9392;SDS011;4736;52.508;13.422;2023-08-20T17:41:46;3.17;;;2.93;;
9392;SDS011;4736;52.508;13.422;2023-08-20T17:44:49;3.30;;;3.00;;
9392;SDS011;4736;52.508;13.422;2023-08-20T17:47:53;3.60;;;2.70;;
9392;SDS011;4736;52.508;13.422;2023-08-20T17:50:56;4.20;;;2.63;;
9392;SDS011;4736;52.508;13.422;2023-08-20T17:54:00;2.47;;;2.40;;
9392;SDS011;4736;52.508;13.422;2023-08-20T17:57:05;2.67;;;2.57;;
9392;SDS011;4736;52.508;13.422;2023-08-20T18:00:08;2.90;;;2.60;;
9392;SDS011;4736;52.508;13.422;2023-08-20T18:03:11;2.70;;;2.50;;
9392;SDS011;4736;52.508;13.422;2023-08-20T18:06:15;2.77;;;2.57;;
9392;SDS011;4736;52.508;13.422;2023-08-20T18:09:20;2.53;;;2.40;;
9392;SDS011;4736;52.508;13.422;2023-08-20T18:12:23;3.10;;;2.83;;
9392;SDS011;4736;52.508;13.422;2023-08-20T18:15:26;3.03;;;2.70;;
9392;SDS011;4736;52.508;13.422;2023-08-20T18:18:29;2.77;;;2.60;;
9392;SDS011;4736;52.508;13.422;2023-08-20T18:21:33;2.60;;;2.43;;
9392;SDS011;4736;52.508;13.422;2023-08-20T18:24:39;3.17;;;2.97;;
9392;SDS011;4736;52.508;13.422;2023-08-20T18:27:42;3.03;;;2.83;;
9392;SDS011;4736;52.508;13.422;2023-08-20T18:30:47;3.20;;;2.67;;